Terminal Aerodrome Forecast
Issued by NWS

Home | Current Version | Previous Version | Text Only | Print | Product List | Glossary On
Versions: 1 2 3 4 5 6 7 8 9 10 11 12 13 14
509
FTUS45 KTFX 281722
TAFLWT
TAF
KLWT 281722Z 2818/2918 29007KT P6SM SCT015 BKN030
      TEMPO 2818/2822 -SHRA BKN015
     FM282200 33008KT P6SM VCSH SCT030 BKN060
     FM290700 13005KT P6SM FEW050 SCT200
     FM291100 19005KT P6SM FEW060 SCT200
     FM291500 21009KT P6SM FEW050 SCT080=

USA.gov is the U.S. government's official web portal to all federal, state and local government web resources and services.